sensor_id;sensor_type;location;lat;lon;timestamp;P1;durP1;ratioP1;P2;durP2;ratioP2
29550;SDS011;16488;52.396;10.696;2022-11-14T00:01:55;99.40;;;44.20;;
29550;SDS011;16488;52.396;10.696;2022-11-14T00:04:20;92.15;;;44.90;;
29550;SDS011;16488;52.396;10.696;2022-11-14T00:06:46;96.45;;;47.55;;
29550;SDS011;16488;52.396;10.696;2022-11-14T00:09:11;97.30;;;46.13;;
29550;SDS011;16488;52.396;10.696;2022-11-14T00:11:37;93.35;;;44.97;;
29550;SDS011;16488;52.396;10.696;2022-11-14T00:14:02;96.00;;;47.50;;
29550;SDS011;16488;52.396;10.696;2022-11-14T00:16:28;93.20;;;44.38;;
29550;SDS011;16488;52.396;10.696;2022-11-14T00:18:54;95.67;;;45.10;;
29550;SDS011;16488;52.396;10.696;2022-11-14T00:21:19;96.57;;;44.33;;
29550;SDS011;16488;52.396;10.696;2022-11-14T00:23:45;88.80;;;41.75;;
29550;SDS011;16488;52.396;10.696;2022-11-14T00:26:10;93.17;;;42.53;;
29550;SDS011;16488;52.396;10.696;2022-11-14T00:28:36;97.00;;;44.05;;
29550;SDS011;16488;52.396;10.696;2022-11-14T00:31:01;94.10;;;43.83;;
29550;SDS011;16488;52.396;10.696;2022-11-14T00:33:27;97.90;;;46.15;;
29550;SDS011;16488;52.396;10.696;2022-11-14T00:35:53;93.90;;;44.60;;
29550;SDS011;16488;52.396;10.696;2022-11-14T00:38:19;102.10;;;45.83;;
29550;SDS011;16488;52.396;10.696;2022-11-14T00:40:45;94.40;;;45.75;;
29550;SDS011;16488;52.396;10.696;2022-11-14T00:43:11;95.00;;;44.33;;
29550;SDS011;16488;52.396;10.696;2022-11-14T00:45:36;109.78;;;48.55;;
29550;SDS011;16488;52.396;10.696;2022-11-14T00:48:02;109.22;;;47.38;;
29550;SDS011;16488;52.396;10.696;2022-11-14T00:50:27;97.57;;;44.30;;
29550;SDS011;16488;52.396;10.696;2022-11-14T00:52:53;89.22;;;45.10;;
29550;SDS011;16488;52.396;10.696;2022-11-14T00:55:18;97.88;;;43.97;;
29550;SDS011;16488;52.396;10.696;2022-11-14T00:57:44;99.07;;;44.97;;
29550;SDS011;16488;52.396;10.696;2022-11-14T01:00:10;97.10;;;47.17;;
29550;SDS011;16488;52.396;10.696;2022-11-14T01:02:37;98.75;;;45.58;;
29550;SDS011;16488;52.396;10.696;2022-11-14T01:05:03;98.07;;;44.83;;
29550;SDS011;16488;52.396;10.696;2022-11-14T01:07:29;98.53;;;45.08;;
29550;SDS011;16488;52.396;10.696;2022-11-14T01:09:54;100.55;;;45.85;;
29550;SDS011;16488;52.396;10.696;2022-11-14T01:12:20;99.25;;;44.58;;
29550;SDS011;16488;52.396;10.696;2022-11-14T01:14:46;102.93;;;45.17;;
29550;SDS011;16488;52.396;10.696;2022-11-14T01:17:11;98.78;;;43.97;;
29550;SDS011;16488;52.396;10.696;2022-11-14T01:19:37;92.18;;;43.15;;
29550;SDS011;16488;52.396;10.696;2022-11-14T01:22:02;93.63;;;44.58;;
29550;SDS011;16488;52.396;10.696;2022-11-14T01:24:28;90.40;;;44.03;;
29550;SDS011;16488;52.396;10.696;2022-11-14T01:26:57;99.15;;;45.90;;
29550;SDS011;16488;52.396;10.696;2022-11-14T01:29:23;95.07;;;43.60;;
29550;SDS011;16488;52.396;10.696;2022-11-14T01:31:48;100.82;;;45.72;;
29550;SDS011;16488;52.396;10.696;2022-11-14T01:34:14;105.57;;;44.38;;
29550;SDS011;16488;52.396;10.696;2022-11-14T01:36:39;96.22;;;45.25;;
29550;SDS011;16488;52.396;10.696;2022-11-14T01:39:05;91.47;;;43.33;;
29550;SDS011;16488;52.396;10.696;2022-11-14T01:41:31;98.47;;;44.35;;
29550;SDS011;16488;52.396;10.696;2022-11-14T01:43:56;103.80;;;44.83;;
29550;SDS011;16488;52.396;10.696;2022-11-14T01:46:22;102.30;;;43.22;;
29550;SDS011;16488;52.396;10.696;2022-11-14T01:49:07;99.05;;;46.05;;
29550;SDS011;16488;52.396;10.696;2022-11-14T01:51:40;101.43;;;45.25;;
29550;SDS011;16488;52.396;10.696;2022-11-14T01:54:13;98.85;;;44.75;;
29550;SDS011;16488;52.396;10.696;2022-11-14T01:56:52;98.65;;;41.83;;
29550;SDS011;16488;52.396;10.696;2022-11-14T01:59:30;103.00;;;44.60;;
29550;SDS011;16488;52.396;10.696;2022-11-14T02:02:02;103.72;;;46.55;;
29550;SDS011;16488;52.396;10.696;2022-11-14T02:04:33;98.80;;;44.72;;
29550;SDS011;16488;52.396;10.696;2022-11-14T02:07:02;98.85;;;45.70;;
29550;SDS011;16488;52.396;10.696;2022-11-14T02:09:30;106.47;;;45.97;;
29550;SDS011;16488;52.396;10.696;2022-11-14T02:11:59;106.70;;;45.70;;
29550;SDS011;16488;52.396;10.696;2022-11-14T02:14:26;107.00;;;47.42;;
29550;SDS011;16488;52.396;10.696;2022-11-14T02:16:53;111.30;;;49.25;;
29550;SDS011;16488;52.396;10.696;2022-11-14T02:19:19;118.88;;;50.50;;
29550;SDS011;16488;52.396;10.696;2022-11-14T02:21:44;108.68;;;46.58;;
29550;SDS011;16488;52.396;10.696;2022-11-14T02:24:10;115.45;;;49.95;;
29550;SDS011;16488;52.396;10.696;2022-11-14T02:26:37;122.50;;;50.83;;
29550;SDS011;16488;52.396;10.696;2022-11-14T02:29:03;110.15;;;48.25;;
29550;SDS011;16488;52.396;10.696;2022-11-14T02:31:32;115.32;;;48.60;;
29550;SDS011;16488;52.396;10.696;2022-11-14T02:33:58;109.00;;;50.50;;
29550;SDS011;16488;52.396;10.696;2022-11-14T02:36:24;112.15;;;47.78;;
29550;SDS011;16488;52.396;10.696;2022-11-14T02:41:15;119.03;;;48.45;;
29550;SDS011;16488;52.396;10.696;2022-11-14T02:43:41;111.15;;;49.25;;
29550;SDS011;16488;52.396;10.696;2022-11-14T02:46:07;123.65;;;51.08;;
29550;SDS011;16488;52.396;10.696;2022-11-14T02:48:32;117.47;;;50.90;;
29550;SDS011;16488;52.396;10.696;2022-11-14T02:50:58;114.38;;;49.45;;
29550;SDS011;16488;52.396;10.696;2022-11-14T02:53:23;112.57;;;50.78;;
29550;SDS011;16488;52.396;10.696;2022-11-14T02:55:49;116.35;;;49.63;;
29550;SDS011;16488;52.396;10.696;2022-11-14T02:58:15;112.35;;;46.78;;
29550;SDS011;16488;52.396;10.696;2022-11-14T03:00:40;117.45;;;51.60;;
29550;SDS011;16488;52.396;10.696;2022-11-14T03:03:06;122.38;;;52.33;;
29550;SDS011;16488;52.396;10.696;2022-11-14T03:05:31;119.03;;;54.53;;
29550;SDS011;16488;52.396;10.696;2022-11-14T03:07:57;120.93;;;52.53;;
29550;SDS011;16488;52.396;10.696;2022-11-14T03:10:22;126.95;;;51.42;;
29550;SDS011;16488;52.396;10.696;2022-11-14T03:12:54;124.32;;;51.72;;
29550;SDS011;16488;52.396;10.696;2022-11-14T03:15:21;132.25;;;55.28;;
29550;SDS011;16488;52.396;10.696;2022-11-14T03:17:47;135.27;;;53.83;;
29550;SDS011;16488;52.396;10.696;2022-11-14T03:20:13;132.48;;;53.22;;
29550;SDS011;16488;52.396;10.696;2022-11-14T03:22:39;135.32;;;54.03;;
29550;SDS011;16488;52.396;10.696;2022-11-14T03:25:04;132.32;;;51.65;;
29550;SDS011;16488;52.396;10.696;2022-11-14T03:27:30;132.23;;;57.28;;
29550;SDS011;16488;52.396;10.696;2022-11-14T03:29:56;124.53;;;51.00;;
29550;SDS011;16488;52.396;10.696;2022-11-14T03:32:21;142.93;;;54.00;;
29550;SDS011;16488;52.396;10.696;2022-11-14T03:34:47;134.23;;;55.45;;
29550;SDS011;16488;52.396;10.696;2022-11-14T03:37:12;135.15;;;55.08;;
29550;SDS011;16488;52.396;10.696;2022-11-14T03:39:38;116.00;;;52.13;;
29550;SDS011;16488;52.396;10.696;2022-11-14T03:42:04;125.22;;;52.15;;
29550;SDS011;16488;52.396;10.696;2022-11-14T03:44:29;117.78;;;50.55;;
29550;SDS011;16488;52.396;10.696;2022-11-14T03:46:55;128.13;;;50.92;;
29550;SDS011;16488;52.396;10.696;2022-11-14T03:49:20;136.73;;;53.40;;
29550;SDS011;16488;52.396;10.696;2022-11-14T03:51:46;126.10;;;52.28;;
29550;SDS011;16488;52.396;10.696;2022-11-14T03:54:12;136.85;;;53.67;;
29550;SDS011;16488;52.396;10.696;2022-11-14T03:56:37;134.18;;;54.58;;
29550;SDS011;16488;52.396;10.696;2022-11-14T03:59:03;119.00;;;50.65;;
29550;SDS011;16488;52.396;10.696;2022-11-14T04:01:28;125.38;;;51.13;;
29550;SDS011;16488;52.396;10.696;2022-11-14T04:03:54;129.23;;;50.30;;
29550;SDS011;16488;52.396;10.696;2022-11-14T04:06:20;136.88;;;55.15;;
29550;SDS011;16488;52.396;10.696;2022-11-14T04:08:45;135.48;;;52.90;;
29550;SDS011;16488;52.396;10.696;2022-11-14T04:11:11;136.20;;;52.90;;
29550;SDS011;16488;52.396;10.696;2022-11-14T04:13:36;124.95;;;50.83;;
29550;SDS011;16488;52.396;10.696;2022-11-14T04:16:02;120.55;;;51.58;;
29550;SDS011;16488;52.396;10.696;2022-11-14T04:18:28;140.45;;;53.42;;
29550;SDS011;16488;52.396;10.696;2022-11-14T04:20:53;143.60;;;52.80;;
29550;SDS011;16488;52.396;10.696;2022-11-14T04:23:19;126.72;;;50.05;;
29550;SDS011;16488;52.396;10.696;2022-11-14T04:25:45;134.27;;;52.30;;
29550;SDS011;16488;52.396;10.696;2022-11-14T04:28:11;135.73;;;52.42;;
29550;SDS011;16488;52.396;10.696;2022-11-14T04:30:37;147.40;;;53.80;;
29550;SDS011;16488;52.396;10.696;2022-11-14T04:33:03;138.15;;;50.33;;
29550;SDS011;16488;52.396;10.696;2022-11-14T04:35:29;138.18;;;51.42;;
29550;SDS011;16488;52.396;10.696;2022-11-14T04:37:54;145.23;;;54.42;;
29550;SDS011;16488;52.396;10.696;2022-11-14T04:40:20;128.27;;;54.72;;
29550;SDS011;16488;52.396;10.696;2022-11-14T04:42:46;154.05;;;56.80;;
29550;SDS011;16488;52.396;10.696;2022-11-14T04:45:12;141.20;;;55.05;;
29550;SDS011;16488;52.396;10.696;2022-11-14T04:47:40;147.02;;;55.15;;
29550;SDS011;16488;52.396;10.696;2022-11-14T04:50:06;137.10;;;55.42;;
29550;SDS011;16488;52.396;10.696;2022-11-14T04:54:57;128.02;;;51.88;;
29550;SDS011;16488;52.396;10.696;2022-11-14T04:57:23;134.18;;;55.90;;
29550;SDS011;16488;52.396;10.696;2022-11-14T04:59:49;131.38;;;52.80;;
29550;SDS011;16488;52.396;10.696;2022-11-14T05:02:14;134.05;;;54.38;;
29550;SDS011;16488;52.396;10.696;2022-11-14T05:04:40;130.55;;;50.33;;
29550;SDS011;16488;52.396;10.696;2022-11-14T05:07:05;123.40;;;50.83;;
29550;SDS011;16488;52.396;10.696;2022-11-14T05:09:31;128.27;;;54.85;;
29550;SDS011;16488;52.396;10.696;2022-11-14T05:11:57;135.98;;;51.90;;
29550;SDS011;16488;52.396;10.696;2022-11-14T05:14:22;138.38;;;54.20;;
29550;SDS011;16488;52.396;10.696;2022-11-14T05:16:48;117.95;;;47.97;;
29550;SDS011;16488;52.396;10.696;2022-11-14T05:19:13;116.57;;;48.15;;
29550;SDS011;16488;52.396;10.696;2022-11-14T05:21:39;111.13;;;46.30;;
29550;SDS011;16488;52.396;10.696;2022-11-14T05:24:04;113.55;;;50.28;;
29550;SDS011;16488;52.396;10.696;2022-11-14T05:26:30;112.07;;;46.50;;
29550;SDS011;16488;52.396;10.696;2022-11-14T05:28:55;102.43;;;44.53;;
29550;SDS011;16488;52.396;10.696;2022-11-14T05:31:21;96.80;;;44.22;;
29550;SDS011;16488;52.396;10.696;2022-11-14T05:33:46;100.97;;;43.75;;
29550;SDS011;16488;52.396;10.696;2022-11-14T05:36:13;107.20;;;43.95;;
29550;SDS011;16488;52.396;10.696;2022-11-14T05:38:40;111.70;;;48.40;;
29550;SDS011;16488;52.396;10.696;2022-11-14T05:43:41;116.90;;;46.90;;
29550;SDS011;16488;52.396;10.696;2022-11-14T05:48:35;122.88;;;47.72;;
29550;SDS011;16488;52.396;10.696;2022-11-14T05:51:01;128.35;;;50.08;;
29550;SDS011;16488;52.396;10.696;2022-11-14T05:53:29;111.32;;;46.22;;
29550;SDS011;16488;52.396;10.696;2022-11-14T05:55:59;109.05;;;46.03;;
29550;SDS011;16488;52.396;10.696;2022-11-14T05:58:25;113.90;;;45.78;;
29550;SDS011;16488;52.396;10.696;2022-11-14T06:00:51;115.70;;;45.40;;
29550;SDS011;16488;52.396;10.696;2022-11-14T06:03:16;117.50;;;44.92;;
29550;SDS011;16488;52.396;10.696;2022-11-14T06:05:42;108.05;;;46.00;;
29550;SDS011;16488;52.396;10.696;2022-11-14T06:08:08;108.28;;;44.55;;
29550;SDS011;16488;52.396;10.696;2022-11-14T06:10:34;114.68;;;46.17;;
29550;SDS011;16488;52.396;10.696;2022-11-14T06:12:59;114.50;;;45.33;;
29550;SDS011;16488;52.396;10.696;2022-11-14T06:15:25;112.63;;;44.80;;
29550;SDS011;16488;52.396;10.696;2022-11-14T06:17:52;113.00;;;46.47;;
29550;SDS011;16488;52.396;10.696;2022-11-14T06:20:18;119.03;;;44.75;;
29550;SDS011;16488;52.396;10.696;2022-11-14T06:22:43;111.72;;;46.33;;
29550;SDS011;16488;52.396;10.696;2022-11-14T06:25:09;118.63;;;45.97;;
29550;SDS011;16488;52.396;10.696;2022-11-14T06:27:35;121.13;;;46.47;;
29550;SDS011;16488;52.396;10.696;2022-11-14T06:30:00;124.80;;;47.60;;
29550;SDS011;16488;52.396;10.696;2022-11-14T06:32:26;123.07;;;47.58;;
29550;SDS011;16488;52.396;10.696;2022-11-14T06:34:52;115.45;;;48.72;;
29550;SDS011;16488;52.396;10.696;2022-11-14T06:37:17;121.25;;;48.08;;
29550;SDS011;16488;52.396;10.696;2022-11-14T06:39:43;121.90;;;47.20;;
29550;SDS011;16488;52.396;10.696;2022-11-14T06:42:08;112.82;;;47.88;;
29550;SDS011;16488;52.396;10.696;2022-11-14T06:44:34;116.45;;;46.55;;
29550;SDS011;16488;52.396;10.696;2022-11-14T06:46:59;119.45;;;48.28;;
29550;SDS011;16488;52.396;10.696;2022-11-14T06:49:25;126.32;;;48.55;;
29550;SDS011;16488;52.396;10.696;2022-11-14T06:54:17;117.55;;;47.75;;
29550;SDS011;16488;52.396;10.696;2022-11-14T06:56:44;117.78;;;47.00;;
29550;SDS011;16488;52.396;10.696;2022-11-14T06:59:09;121.38;;;49.00;;
29550;SDS011;16488;52.396;10.696;2022-11-14T07:01:35;124.63;;;48.22;;
29550;SDS011;16488;52.396;10.696;2022-11-14T07:04:01;111.30;;;47.58;;
29550;SDS011;16488;52.396;10.696;2022-11-14T07:06:27;115.18;;;48.53;;
29550;SDS011;16488;52.396;10.696;2022-11-14T07:08:54;115.32;;;47.92;;
29550;SDS011;16488;52.396;10.696;2022-11-14T07:11:24;119.43;;;46.78;;
29550;SDS011;16488;52.396;10.696;2022-11-14T07:13:59;110.93;;;46.78;;
29550;SDS011;16488;52.396;10.696;2022-11-14T07:16:27;122.95;;;47.88;;
29550;SDS011;16488;52.396;10.696;2022-11-14T07:18:54;119.00;;;50.20;;
29550;SDS011;16488;52.396;10.696;2022-11-14T07:21:21;126.57;;;52.17;;
29550;SDS011;16488;52.396;10.696;2022-11-14T07:23:47;109.38;;;45.47;;
29550;SDS011;16488;52.396;10.696;2022-11-14T07:26:12;106.40;;;46.63;;
29550;SDS011;16488;52.396;10.696;2022-11-14T07:28:39;119.03;;;49.38;;
29550;SDS011;16488;52.396;10.696;2022-11-14T07:31:06;115.13;;;48.33;;
29550;SDS011;16488;52.396;10.696;2022-11-14T07:33:33;109.95;;;45.53;;
29550;SDS011;16488;52.396;10.696;2022-11-14T07:35:59;116.38;;;49.00;;
29550;SDS011;16488;52.396;10.696;2022-11-14T07:38:25;104.85;;;45.20;;
29550;SDS011;16488;52.396;10.696;2022-11-14T07:40:56;113.20;;;46.50;;
29550;SDS011;16488;52.396;10.696;2022-11-14T07:43:23;108.38;;;47.35;;
29550;SDS011;16488;52.396;10.696;2022-11-14T07:45:49;99.35;;;44.28;;
29550;SDS011;16488;52.396;10.696;2022-11-14T07:48:15;111.53;;;48.17;;
29550;SDS011;16488;52.396;10.696;2022-11-14T07:50:42;105.13;;;44.28;;
29550;SDS011;16488;52.396;10.696;2022-11-14T07:53:07;105.55;;;44.60;;
29550;SDS011;16488;52.396;10.696;2022-11-14T07:55:37;102.38;;;44.85;;
29550;SDS011;16488;52.396;10.696;2022-11-14T07:58:02;107.90;;;47.63;;
29550;SDS011;16488;52.396;10.696;2022-11-14T08:00:28;105.35;;;47.08;;
29550;SDS011;16488;52.396;10.696;2022-11-14T08:02:54;116.22;;;48.33;;
29550;SDS011;16488;52.396;10.696;2022-11-14T08:05:20;107.00;;;47.55;;
29550;SDS011;16488;52.396;10.696;2022-11-14T08:07:45;105.60;;;47.28;;
29550;SDS011;16488;52.396;10.696;2022-11-14T08:10:15;103.05;;;45.08;;
29550;SDS011;16488;52.396;10.696;2022-11-14T08:12:41;111.55;;;49.95;;
29550;SDS011;16488;52.396;10.696;2022-11-14T08:15:08;102.15;;;43.80;;
29550;SDS011;16488;52.396;10.696;2022-11-14T08:17:35;108.95;;;47.05;;
29550;SDS011;16488;52.396;10.696;2022-11-14T08:20:01;109.43;;;49.65;;
29550;SDS011;16488;52.396;10.696;2022-11-14T08:22:27;109.90;;;47.45;;
29550;SDS011;16488;52.396;10.696;2022-11-14T08:24:55;106.53;;;46.45;;
29550;SDS011;16488;52.396;10.696;2022-11-14T08:27:20;107.22;;;48.58;;
29550;SDS011;16488;52.396;10.696;2022-11-14T08:29:46;101.88;;;45.53;;
29550;SDS011;16488;52.396;10.696;2022-11-14T08:32:12;107.80;;;48.10;;
29550;SDS011;16488;52.396;10.696;2022-11-14T08:34:37;103.47;;;47.45;;
29550;SDS011;16488;52.396;10.696;2022-11-14T08:37:03;98.63;;;46.65;;
29550;SDS011;16488;52.396;10.696;2022-11-14T08:39:28;100.30;;;43.78;;
29550;SDS011;16488;52.396;10.696;2022-11-14T08:41:54;96.57;;;46.75;;
29550;SDS011;16488;52.396;10.696;2022-11-14T08:44:19;98.47;;;45.42;;
29550;SDS011;16488;52.396;10.696;2022-11-14T08:46:45;94.25;;;44.33;;
29550;SDS011;16488;52.396;10.696;2022-11-14T08:49:10;98.13;;;44.22;;
29550;SDS011;16488;52.396;10.696;2022-11-14T08:51:36;92.28;;;41.70;;
29550;SDS011;16488;52.396;10.696;2022-11-14T08:54:02;92.43;;;44.63;;
29550;SDS011;16488;52.396;10.696;2022-11-14T08:56:27;90.22;;;45.08;;
29550;SDS011;16488;52.396;10.696;2022-11-14T08:58:53;86.10;;;41.97;;
29550;SDS011;16488;52.396;10.696;2022-11-14T09:01:18;84.53;;;40.38;;
29550;SDS011;16488;52.396;10.696;2022-11-14T09:03:44;90.57;;;44.20;;
29550;SDS011;16488;52.396;10.696;2022-11-14T09:06:09;85.18;;;41.60;;
29550;SDS011;16488;52.396;10.696;2022-11-14T09:08:35;81.60;;;39.70;;
29550;SDS011;16488;52.396;10.696;2022-11-14T09:11:01;83.85;;;41.33;;
29550;SDS011;16488;52.396;10.696;2022-11-14T09:13:28;78.78;;;40.15;;
29550;SDS011;16488;52.396;10.696;2022-11-14T09:15:55;82.65;;;39.67;;
29550;SDS011;16488;52.396;10.696;2022-11-14T09:18:21;90.30;;;41.85;;
29550;SDS011;16488;52.396;10.696;2022-11-14T09:20:47;81.85;;;40.25;;
29550;SDS011;16488;52.396;10.696;2022-11-14T09:23:12;76.28;;;39.40;;
29550;SDS011;16488;52.396;10.696;2022-11-14T09:25:38;76.57;;;38.58;;
29550;SDS011;16488;52.396;10.696;2022-11-14T09:28:06;74.97;;;38.75;;
29550;SDS011;16488;52.396;10.696;2022-11-14T09:30:33;75.25;;;38.30;;
29550;SDS011;16488;52.396;10.696;2022-11-14T09:33:01;73.63;;;37.22;;
29550;SDS011;16488;52.396;10.696;2022-11-14T09:35:28;75.85;;;40.45;;
29550;SDS011;16488;52.396;10.696;2022-11-14T09:38:12;77.47;;;37.78;;
29550;SDS011;16488;52.396;10.696;2022-11-14T09:40:45;80.60;;;39.13;;
29550;SDS011;16488;52.396;10.696;2022-11-14T09:46:23;77.25;;;38.92;;
29550;SDS011;16488;52.396;10.696;2022-11-14T09:48:51;77.90;;;39.10;;
29550;SDS011;16488;52.396;10.696;2022-11-14T09:51:18;72.13;;;39.05;;
29550;SDS011;16488;52.396;10.696;2022-11-14T09:53:52;83.57;;;39.90;;
29550;SDS011;16488;52.396;10.696;2022-11-14T09:56:28;72.22;;;39.00;;
29550;SDS011;16488;52.396;10.696;2022-11-14T09:58:54;82.93;;;40.45;;
29550;SDS011;16488;52.396;10.696;2022-11-14T10:01:40;73.93;;;37.85;;
29550;SDS011;16488;52.396;10.696;2022-11-14T10:04:12;71.22;;;36.80;;
29550;SDS011;16488;52.396;10.696;2022-11-14T10:06:55;66.97;;;36.70;;
29550;SDS011;16488;52.396;10.696;2022-11-14T10:12:01;61.80;;;34.13;;
29550;SDS011;16488;52.396;10.696;2022-11-14T10:20:26;58.10;;;33.03;;
29550;SDS011;16488;52.396;10.696;2022-11-14T10:23:05;62.65;;;34.28;;
29550;SDS011;16488;52.396;10.696;2022-11-14T10:28:41;54.15;;;31.13;;
29550;SDS011;16488;52.396;10.696;2022-11-14T10:34:34;61.70;;;33.38;;
29550;SDS011;16488;52.396;10.696;2022-11-14T10:40:03;58.25;;;31.65;;
29550;SDS011;16488;52.396;10.696;2022-11-14T10:42:49;57.33;;;30.83;;
29550;SDS011;16488;52.396;10.696;2022-11-14T10:47:52;56.67;;;31.95;;
29550;SDS011;16488;52.396;10.696;2022-11-14T10:50:24;53.08;;;31.55;;
29550;SDS011;16488;52.396;10.696;2022-11-14T10:53:03;55.20;;;30.55;;
29550;SDS011;16488;52.396;10.696;2022-11-14T10:55:44;50.70;;;30.13;;
29550;SDS011;16488;52.396;10.696;2022-11-14T10:58:13;51.35;;;29.88;;
29550;SDS011;16488;52.396;10.696;2022-11-14T11:00:39;50.08;;;31.13;;
29550;SDS011;16488;52.396;10.696;2022-11-14T11:03:05;53.97;;;29.50;;
29550;SDS011;16488;52.396;10.696;2022-11-14T11:05:31;51.97;;;30.17;;
29550;SDS011;16488;52.396;10.696;2022-11-14T11:08:10;45.83;;;29.33;;
29550;SDS011;16488;52.396;10.696;2022-11-14T11:10:56;47.67;;;29.58;;
29550;SDS011;16488;52.396;10.696;2022-11-14T11:14:00;50.00;;;29.00;;
29550;SDS011;16488;52.396;10.696;2022-11-14T11:16:26;49.65;;;28.33;;
29550;SDS011;16488;52.396;10.696;2022-11-14T11:18:53;45.95;;;27.98;;
29550;SDS011;16488;52.396;10.696;2022-11-14T11:21:19;47.37;;;28.63;;
29550;SDS011;16488;52.396;10.696;2022-11-14T11:26:19;46.77;;;29.57;;
29550;SDS011;16488;52.396;10.696;2022-11-14T11:29:00;46.42;;;26.95;;
29550;SDS011;16488;52.396;10.696;2022-11-14T11:31:34;43.75;;;26.33;;
29550;SDS011;16488;52.396;10.696;2022-11-14T11:34:16;46.08;;;25.58;;
29550;SDS011;16488;52.396;10.696;2022-11-14T11:36:49;44.22;;;26.17;;
29550;SDS011;16488;52.396;10.696;2022-11-14T11:39:23;43.92;;;27.67;;
29550;SDS011;16488;52.396;10.696;2022-11-14T11:41:56;41.15;;;25.38;;
29550;SDS011;16488;52.396;10.696;2022-11-14T11:44:36;44.67;;;25.63;;
29550;SDS011;16488;52.396;10.696;2022-11-14T11:47:11;45.92;;;27.50;;
29550;SDS011;16488;52.396;10.696;2022-11-14T11:49:46;41.33;;;25.45;;
29550;SDS011;16488;52.396;10.696;2022-11-14T11:57:41;43.25;;;26.02;;
29550;SDS011;16488;52.396;10.696;2022-11-14T12:00:19;45.92;;;27.73;;
29550;SDS011;16488;52.396;10.696;2022-11-14T12:02:47;46.22;;;26.92;;
29550;SDS011;16488;52.396;10.696;2022-11-14T12:05:22;41.55;;;26.50;;
29550;SDS011;16488;52.396;10.696;2022-11-14T12:08:00;42.85;;;25.27;;
29550;SDS011;16488;52.396;10.696;2022-11-14T12:10:35;48.50;;;27.13;;
29550;SDS011;16488;52.396;10.696;2022-11-14T12:23:41;39.28;;;24.42;;
29550;SDS011;16488;52.396;10.696;2022-11-14T12:26:24;42.13;;;25.25;;
29550;SDS011;16488;52.396;10.696;2022-11-14T12:32:21;40.13;;;24.35;;
29550;SDS011;16488;52.396;10.696;2022-11-14T12:34:55;36.90;;;24.92;;
29550;SDS011;16488;52.396;10.696;2022-11-14T12:37:26;35.53;;;22.92;;
29550;SDS011;16488;52.396;10.696;2022-11-14T12:39:59;35.83;;;23.13;;
29550;SDS011;16488;52.396;10.696;2022-11-14T12:42:30;32.80;;;22.05;;
29550;SDS011;16488;52.396;10.696;2022-11-14T12:44:56;32.05;;;22.80;;
29550;SDS011;16488;52.396;10.696;2022-11-14T12:47:23;32.47;;;22.15;;
29550;SDS011;16488;52.396;10.696;2022-11-14T13:00:31;27.88;;;20.40;;
29550;SDS011;16488;52.396;10.696;2022-11-14T13:14:15;27.85;;;20.27;;
29550;SDS011;16488;52.396;10.696;2022-11-14T13:17:08;27.10;;;18.77;;
29550;SDS011;16488;52.396;10.696;2022-11-14T13:19:59;30.60;;;20.20;;
29550;SDS011;16488;52.396;10.696;2022-11-14T13:22:45;28.35;;;19.77;;
29550;SDS011;16488;52.396;10.696;2022-11-14T13:25:15;31.02;;;20.58;;
29550;SDS011;16488;52.396;10.696;2022-11-14T13:27:47;28.58;;;20.48;;
29550;SDS011;16488;52.396;10.696;2022-11-14T13:30:13;28.25;;;19.40;;
29550;SDS011;16488;52.396;10.696;2022-11-14T13:35:04;27.63;;;20.20;;
29550;SDS011;16488;52.396;10.696;2022-11-14T13:38:04;25.63;;;19.17;;
29550;SDS011;16488;52.396;10.696;2022-11-14T13:44:06;25.75;;;18.48;;
29550;SDS011;16488;52.396;10.696;2022-11-14T13:52:14;30.25;;;19.17;;
29550;SDS011;16488;52.396;10.696;2022-11-14T13:54:49;26.08;;;18.48;;
29550;SDS011;16488;52.396;10.696;2022-11-14T13:57:22;30.20;;;21.08;;
29550;SDS011;16488;52.396;10.696;2022-11-14T14:00:13;32.15;;;20.35;;
29550;SDS011;16488;52.396;10.696;2022-11-14T14:10:42;31.48;;;20.60;;
29550;SDS011;16488;52.396;10.696;2022-11-14T14:13:40;33.83;;;21.45;;
29550;SDS011;16488;52.396;10.696;2022-11-14T14:16:21;36.88;;;23.40;;
29550;SDS011;16488;52.396;10.696;2022-11-14T14:18:58;37.45;;;22.67;;
29550;SDS011;16488;52.396;10.696;2022-11-14T14:21:42;31.80;;;21.33;;
29550;SDS011;16488;52.396;10.696;2022-11-14T14:29:41;33.38;;;22.33;;
29550;SDS011;16488;52.396;10.696;2022-11-14T14:32:22;34.72;;;21.33;;
29550;SDS011;16488;52.396;10.696;2022-11-14T14:34:48;30.88;;;21.20;;
29550;SDS011;16488;52.396;10.696;2022-11-14T14:37:18;34.40;;;21.20;;
29550;SDS011;16488;52.396;10.696;2022-11-14T14:39:58;41.20;;;22.70;;
29550;SDS011;16488;52.396;10.696;2022-11-14T14:42:36;35.53;;;21.50;;
29550;SDS011;16488;52.396;10.696;2022-11-14T14:45:04;34.50;;;22.23;;
29550;SDS011;16488;52.396;10.696;2022-11-14T14:47:41;33.15;;;21.63;;
29550;SDS011;16488;52.396;10.696;2022-11-14T14:50:14;35.28;;;21.98;;
29550;SDS011;16488;52.396;10.696;2022-11-14T14:52:58;34.58;;;21.38;;
29550;SDS011;16488;52.396;10.696;2022-11-14T14:55:26;35.35;;;21.10;;
29550;SDS011;16488;52.396;10.696;2022-11-14T14:57:53;33.67;;;21.35;;
29550;SDS011;16488;52.396;10.696;2022-11-14T15:00:20;33.17;;;20.48;;
29550;SDS011;16488;52.396;10.696;2022-11-14T15:02:54;35.67;;;21.83;;
29550;SDS011;16488;52.396;10.696;2022-11-14T15:05:21;33.00;;;21.75;;
29550;SDS011;16488;52.396;10.696;2022-11-14T15:07:47;30.50;;;20.10;;
29550;SDS011;16488;52.396;10.696;2022-11-14T15:10:32;33.92;;;21.25;;
29550;SDS011;16488;52.396;10.696;2022-11-14T15:12:58;39.90;;;22.70;;
29550;SDS011;16488;52.396;10.696;2022-11-14T15:15:24;33.45;;;21.38;;
29550;SDS011;16488;52.396;10.696;2022-11-14T15:17:51;36.65;;;21.52;;
29550;SDS011;16488;52.396;10.696;2022-11-14T15:20:22;37.20;;;21.45;;
29550;SDS011;16488;52.396;10.696;2022-11-14T15:23:15;32.92;;;20.98;;
29550;SDS011;16488;52.396;10.696;2022-11-14T15:25:44;33.95;;;20.98;;
29550;SDS011;16488;52.396;10.696;2022-11-14T15:28:14;32.60;;;21.05;;
29550;SDS011;16488;52.396;10.696;2022-11-14T15:30:41;39.25;;;22.00;;
29550;SDS011;16488;52.396;10.696;2022-11-14T15:33:31;34.92;;;21.48;;
29550;SDS011;16488;52.396;10.696;2022-11-14T15:36:05;37.58;;;23.33;;
29550;SDS011;16488;52.396;10.696;2022-11-14T15:38:33;34.33;;;22.55;;
29550;SDS011;16488;52.396;10.696;2022-11-14T15:41:32;37.22;;;21.08;;
29550;SDS011;16488;52.396;10.696;2022-11-14T15:43:54;34.67;;;22.35;;
29550;SDS011;16488;52.396;10.696;2022-11-14T15:49:05;35.00;;;22.02;;
29550;SDS011;16488;52.396;10.696;2022-11-14T15:54:24;32.65;;;21.60;;
29550;SDS011;16488;52.396;10.696;2022-11-14T15:56:53;36.15;;;21.92;;
29550;SDS011;16488;52.396;10.696;2022-11-14T15:59:21;41.50;;;23.38;;
29550;SDS011;16488;52.396;10.696;2022-11-14T16:01:48;37.42;;;22.60;;
29550;SDS011;16488;52.396;10.696;2022-11-14T16:04:17;37.38;;;22.98;;